createdAt,value
2023-07-03T00:00:05.784Z,54.5
2023-07-03T00:01:48.125Z,54.5
2023-07-03T00:03:31.820Z,54.5
2023-07-03T00:05:15.598Z,54.6
2023-07-03T00:06:59.219Z,54.6
2023-07-03T00:08:42.937Z,54.6
2023-07-03T00:10:26.625Z,54.7
2023-07-03T00:12:10.359Z,54.7
2023-07-03T00:13:54.055Z,54.8
2023-07-03T00:15:37.777Z,54.8
2023-07-03T00:17:21.454Z,54.8
2023-07-03T00:19:05.123Z,54.8
2023-07-03T00:20:48.857Z,54.9
2023-07-03T00:22:32.678Z,54.9
2023-07-03T00:24:16.269Z,54.9
2023-07-03T00:25:59.975Z,54.9
2023-07-03T00:27:43.674Z,55
2023-07-03T00:29:27.415Z,55
2023-07-03T00:31:11.117Z,55
2023-07-03T00:32:54.821Z,55.1
2023-07-03T00:34:38.552Z,55.2
2023-07-03T00:36:22.188Z,55.3
2023-07-03T00:38:05.885Z,55.3
2023-07-03T00:39:49.596Z,55.3
2023-07-03T00:41:33.321Z,55.3
2023-07-03T00:43:16.996Z,55.3
2023-07-03T00:45:00.704Z,55.3
2023-07-03T00:46:44.411Z,55.3
2023-07-03T00:48:28.115Z,55.4
2023-07-03T00:50:11.793Z,55.3
2023-07-03T00:51:55.540Z,55.4
2023-07-03T00:53:39.212Z,55.3
2023-07-03T00:55:22.918Z,55.4
2023-07-03T00:57:06.622Z,55.4
2023-07-03T00:58:50.321Z,55.3
2023-07-03T01:00:34.019Z,55.3
2023-07-03T01:02:17.717Z,55.4
2023-07-03T01:04:01.519Z,55.4
2023-07-03T01:05:45.110Z,55.4
2023-07-03T01:07:28.858Z,55.4
2023-07-03T01:09:12.528Z,55.4
2023-07-03T01:10:56.239Z,55.4
2023-07-03T01:12:39.942Z,55.4
2023-07-03T01:14:23.633Z,55.4
2023-07-03T01:16:07.341Z,55.4
2023-07-03T01:17:51.056Z,55.4
2023-07-03T01:19:34.776Z,55.4
2023-07-03T01:21:18.453Z,55.4
2023-07-03T01:23:02.215Z,55.4
2023-07-03T01:24:45.854Z,55.4
2023-07-03T01:26:29.576Z,55.5
2023-07-03T01:28:13.281Z,55.5
2023-07-03T01:29:56.994Z,55.5
2023-07-03T01:31:40.680Z,55.5
2023-07-03T01:33:24.400Z,55.5
2023-07-03T01:35:08.116Z,55.5
2023-07-03T01:36:51.833Z,55.5
2023-07-03T01:38:35.491Z,55.6
2023-07-03T01:40:19.215Z,55.6
2023-07-03T01:42:02.939Z,55.6
2023-07-03T01:43:46.610Z,55.6
2023-07-03T01:45:30.457Z,55.7
2023-07-03T01:47:14.008Z,55.7
2023-07-03T01:48:57.717Z,55.7
2023-07-03T01:50:41.405Z,55.7
2023-07-03T01:52:25.118Z,55.8
2023-07-03T01:54:08.816Z,55.8
2023-07-03T01:55:52.512Z,55.8
2023-07-03T01:57:36.363Z,55.9
2023-07-03T01:59:19.946Z,55.9
2023-07-03T02:01:03.628Z,56
2023-07-03T02:02:47.330Z,56
2023-07-03T02:04:31.019Z,56
2023-07-03T02:06:14.729Z,56
2023-07-03T02:07:58.447Z,56
2023-07-03T02:09:42.206Z,56.1
2023-07-03T02:11:25.868Z,56.1
2023-07-03T02:13:09.561Z,56.1
2023-07-03T02:14:53.282Z,56.1
2023-07-03T02:16:36.937Z,56.2
2023-07-03T02:18:20.648Z,56.2
2023-07-03T02:20:04.360Z,56.2
2023-07-03T02:21:48.066Z,56.3
2023-07-03T02:23:31.761Z,56.3
2023-07-03T02:25:15.494Z,56.3
2023-07-03T02:26:59.167Z,56.4
2023-07-03T02:28:42.883Z,56.4
2023-07-03T02:30:26.652Z,56.4
2023-07-03T02:32:10.273Z,56.5
2023-07-03T02:33:53.974Z,56.5
2023-07-03T02:35:37.718Z,56.5
2023-07-03T02:37:21.402Z,56.5
2023-07-03T02:39:05.140Z,56.5
2023-07-03T02:40:48.805Z,56.5
2023-07-03T02:42:32.502Z,56.5
2023-07-03T02:44:16.203Z,56.5
2023-07-03T02:45:59.914Z,56.5
2023-07-03T02:47:43.616Z,56.5
2023-07-03T02:49:27.313Z,56.5
2023-07-03T02:51:11.109Z,56.5
2023-07-03T02:52:54.721Z,56.5
2023-07-03T02:54:38.431Z,56.5
2023-07-03T02:56:22.151Z,56.5
2023-07-03T02:58:05.840Z,56.6
2023-07-03T02:59:49.541Z,56.5
2023-07-03T03:01:33.280Z,56.5
2023-07-03T03:03:16.955Z,56.5
2023-07-03T03:05:00.659Z,56.5
2023-07-03T03:06:44.351Z,56.4
2023-07-03T03:08:28.069Z,56.5
2023-07-03T03:10:11.751Z,56.4
2023-07-03T03:11:55.467Z,56.4
2023-07-03T03:13:39.172Z,56.4
2023-07-03T03:15:22.869Z,56.4
2023-07-03T03:17:06.582Z,56.4
2023-07-03T03:18:50.266Z,56.4
2023-07-03T03:20:34.069Z,56.4
2023-07-03T03:22:17.676Z,56.4
2023-07-03T03:24:01.394Z,56.4
2023-07-03T03:25:45.073Z,56.4
2023-07-03T03:27:28.787Z,56.3
2023-07-03T03:29:12.496Z,56.3
2023-07-03T03:30:56.192Z,56.3
2023-07-03T03:32:39.987Z,56.3
2023-07-03T03:34:23.730Z,56.3
2023-07-03T03:36:07.331Z,56.3
2023-07-03T03:37:50.996Z,56.3
2023-07-03T03:39:34.685Z,56.2
2023-07-03T03:41:18.513Z,56.2
2023-07-03T03:43:02.167Z,56.1
2023-07-03T03:44:45.813Z,56
2023-07-03T03:46:29.518Z,56
2023-07-03T03:48:13.260Z,55.9
2023-07-03T03:49:56.998Z,55.8
2023-07-03T03:51:40.648Z,55.7
2023-07-03T03:53:24.438Z,55.6
2023-07-03T03:55:08.041Z,55.5
2023-07-03T03:56:51.771Z,55.5
2023-07-03T03:58:35.451Z,55.4
2023-07-03T04:00:19.151Z,55.3
2023-07-03T04:02:02.932Z,55.3
2023-07-03T04:03:46.540Z,55.2
2023-07-03T04:05:30.285Z,55.2
2023-07-03T04:07:14.072Z,55.1
2023-07-03T04:08:57.780Z,55.1
2023-07-03T04:10:41.351Z,55
2023-07-03T04:12:25.058Z,55
2023-07-03T04:14:08.753Z,55
2023-07-03T04:15:52.472Z,54.9
2023-07-03T04:17:36.245Z,54.8
2023-07-03T04:19:19.861Z,54.7
2023-07-03T04:21:03.569Z,54.7
2023-07-03T04:22:47.270Z,54.6
2023-07-03T04:24:31.018Z,54.6
2023-07-03T04:26:14.691Z,54.5
2023-07-03T04:27:58.404Z,54.5
2023-07-03T04:29:42.087Z,54.4
2023-07-03T04:31:25.791Z,54.4
2023-07-03T04:33:09.479Z,54.3
2023-07-03T04:34:53.265Z,54.3
2023-07-03T04:36:37.064Z,54.4
2023-07-03T04:38:20.579Z,54.4
2023-07-03T04:40:04.331Z,54.4
2023-07-03T04:41:48.034Z,54.3
2023-07-03T04:43:31.748Z,54.2
2023-07-03T04:45:15.430Z,54.2
2023-07-03T04:46:59.200Z,54.1
2023-07-03T04:48:42.810Z,54
2023-07-03T04:50:26.526Z,54
2023-07-03T04:52:10.208Z,53.9
2023-07-03T04:53:53.891Z,53.8
2023-07-03T04:55:37.580Z,53.8
2023-07-03T04:57:21.318Z,53.7
2023-07-03T04:59:05.015Z,53.7
2023-07-03T05:00:48.719Z,53.7
2023-07-03T05:02:32.410Z,53.7
2023-07-03T05:04:16.096Z,53.6
2023-07-03T05:05:59.818Z,53.6
2023-07-03T05:07:43.497Z,53.5
2023-07-03T05:09:27.225Z,53.4
2023-07-03T05:11:10.974Z,53.4
2023-07-03T05:12:54.620Z,53.3
2023-07-03T05:14:38.387Z,53.3
2023-07-03T05:16:22.046Z,53.2
2023-07-03T05:18:05.786Z,53.1
2023-07-03T05:19:49.417Z,53.1
2023-07-03T05:21:33.164Z,53.1
2023-07-03T05:23:16.811Z,53
2023-07-03T05:25:00.688Z,53
2023-07-03T05:26:44.227Z,52.9
2023-07-03T05:28:28.011Z,52.9
2023-07-03T05:30:11.615Z,52.9
2023-07-03T05:31:55.320Z,52.9
2023-07-03T05:33:39.069Z,52.8
2023-07-03T05:35:22.728Z,52.7
2023-07-03T05:37:06.547Z,52.7
2023-07-03T05:38:50.117Z,52.6
2023-07-03T05:40:33.879Z,52.6
2023-07-03T05:42:17.562Z,52.6
2023-07-03T05:44:01.229Z,52.5
2023-07-03T05:45:44.991Z,52.5
2023-07-03T05:47:28.767Z,52.4
2023-07-03T05:49:12.433Z,52.4
2023-07-03T05:50:56.033Z,52.3
2023-07-03T05:52:39.721Z,52.3
2023-07-03T05:54:23.485Z,52.2
2023-07-03T05:56:07.151Z,52.1
2023-07-03T05:57:50.908Z,52.1
2023-07-03T05:59:34.661Z,52
2023-07-03T06:01:18.323Z,52
2023-07-03T06:03:01.960Z,51.8
2023-07-03T06:04:45.676Z,51.9
2023-07-03T06:06:29.421Z,51.6
2023-07-03T06:08:13.167Z,51.6
2023-07-03T06:09:56.903Z,51.4
2023-07-03T06:11:40.499Z,51.2
2023-07-03T06:13:24.188Z,51.1
2023-07-03T06:15:07.858Z,50.9
2023-07-03T06:16:51.791Z,50.8
2023-07-03T06:18:35.395Z,50.7
2023-07-03T06:20:19.048Z,50.7
2023-07-03T06:22:02.826Z,50.6
2023-07-03T06:23:46.558Z,50.4
2023-07-03T06:25:30.153Z,50.2
2023-07-03T06:27:13.773Z,50.1
2023-07-03T06:28:57.581Z,49.9
2023-07-03T06:30:41.331Z,49.7
2023-07-03T06:32:24.899Z,49.5
2023-07-03T06:34:08.654Z,49
2023-07-03T06:35:52.324Z,48.9
2023-07-03T06:37:36.138Z,48
2023-07-03T06:39:19.710Z,47.4
2023-07-03T06:41:03.458Z,47.5
2023-07-03T06:42:47.105Z,47.7
2023-07-03T06:44:30.902Z,47.9
2023-07-03T06:46:14.509Z,48
2023-07-03T06:47:58.215Z,48.3
2023-07-03T06:49:41.981Z,48.8
2023-07-03T06:51:25.618Z,49.5
2023-07-03T06:53:09.402Z,48.8
2023-07-03T06:54:53.002Z,48.9
2023-07-03T06:56:36.821Z,49
2023-07-03T06:58:20.417Z,48.9
2023-07-03T07:00:05.483Z,49
2023-07-03T07:01:47.821Z,49.1
2023-07-03T07:03:31.607Z,49.1
2023-07-03T07:05:15.285Z,49.2
2023-07-03T07:06:58.981Z,49.2
2023-07-03T07:08:42.641Z,49.2
2023-07-03T07:10:26.357Z,49.2
2023-07-03T07:12:10.045Z,49.2
2023-07-03T07:13:53.810Z,49.2
2023-07-03T07:15:37.433Z,49.1
2023-07-03T07:17:21.190Z,49.2
2023-07-03T07:19:04.857Z,49.3
2023-07-03T07:20:48.625Z,49.3
2023-07-03T07:22:32.259Z,49.4
2023-07-03T07:24:15.960Z,49.4
2023-07-03T07:25:59.709Z,49.4
2023-07-03T07:27:43.470Z,49.4
2023-07-03T07:29:27.192Z,49.4
2023-07-03T07:31:10.770Z,49.3
2023-07-03T07:32:54.689Z,49.3
2023-07-03T07:34:38.179Z,49.3
2023-07-03T07:36:22.031Z,49.3
2023-07-03T07:38:05.670Z,49.4
2023-07-03T07:39:49.435Z,49.4
2023-07-03T07:41:32.973Z,49.2
2023-07-03T07:43:16.672Z,49.1
2023-07-03T07:45:00.470Z,49
2023-07-03T07:46:44.272Z,49.1
2023-07-03T07:48:27.959Z,49.2
2023-07-03T07:50:11.598Z,49.3
2023-07-03T07:51:55.369Z,49.4
2023-07-03T07:53:38.927Z,49.5
2023-07-03T07:55:22.731Z,49.7
2023-07-03T07:57:06.365Z,49.8
2023-07-03T07:58:50.016Z,49.9
2023-07-03T08:00:33.885Z,50.1
2023-07-03T08:02:17.402Z,50.2
2023-07-03T08:04:01.348Z,50.3
2023-07-03T08:05:44.852Z,50.4
2023-07-03T08:07:28.514Z,50.4
2023-07-03T08:09:12.263Z,50.5
2023-07-03T08:10:55.951Z,50.6
2023-07-03T08:12:39.647Z,50.7
2023-07-03T08:14:23.326Z,50.8
2023-07-03T08:16:07.155Z,50.9
2023-07-03T08:17:50.793Z,51
2023-07-03T08:19:34.603Z,51.1
2023-07-03T08:21:18.201Z,51.1
2023-07-03T08:23:01.872Z,51.2
2023-07-03T08:24:45.546Z,51.1
2023-07-03T08:26:29.275Z,51.1
2023-07-03T08:28:12.971Z,51.1
2023-07-03T08:29:56.713Z,51
2023-07-03T08:31:40.352Z,51
2023-07-03T08:33:24.075Z,51.2
2023-07-03T08:35:07.767Z,51.6
2023-07-03T08:36:51.462Z,51.9
2023-07-03T08:38:35.433Z,52.1
2023-07-03T08:40:18.914Z,52.3
2023-07-03T08:42:02.678Z,52.3
2023-07-03T08:43:46.322Z,51.8
2023-07-03T08:45:30.033Z,50.9
2023-07-03T08:47:13.714Z,50.7
2023-07-03T08:48:57.569Z,50.6
2023-07-03T08:50:41.100Z,49.7
2023-07-03T08:52:24.900Z,49.4
2023-07-03T08:54:08.532Z,49.6
2023-07-03T08:55:52.231Z,49.7
2023-07-03T08:57:35.892Z,49.9
2023-07-03T08:59:19.656Z,49.9
2023-07-03T09:01:03.400Z,50
2023-07-03T09:02:47.013Z,49.9
2023-07-03T09:04:30.805Z,49.8
2023-07-03T09:06:14.504Z,49.6
2023-07-03T09:07:58.247Z,49.3
2023-07-03T09:09:41.844Z,49.3
2023-07-03T09:11:25.569Z,49.3
2023-07-03T09:13:09.338Z,49.3
2023-07-03T09:14:52.902Z,49.4
2023-07-03T09:16:36.730Z,49.1
2023-07-03T09:18:20.451Z,48.8
2023-07-03T09:20:04.015Z,48.9
2023-07-03T09:21:47.759Z,49
2023-07-03T09:23:31.521Z,49.1
2023-07-03T09:25:15.149Z,49.1
2023-07-03T09:26:58.819Z,49
2023-07-03T09:28:42.566Z,49
2023-07-03T09:30:26.306Z,49.1
2023-07-03T09:32:09.936Z,49.3
2023-07-03T09:33:53.758Z,49.5
2023-07-03T09:35:37.350Z,49.6
2023-07-03T09:37:21.157Z,49.8
2023-07-03T09:39:04.747Z,50
2023-07-03T09:40:48.423Z,50
2023-07-03T09:42:32.139Z,49.9
2023-07-03T09:44:15.876Z,49.8
2023-07-03T09:45:59.635Z,49.3
2023-07-03T09:47:43.236Z,48.9
2023-07-03T09:49:27.025Z,48.6
2023-07-03T09:51:10.732Z,48.7
2023-07-03T09:52:54.358Z,48.7
2023-07-03T09:54:38.074Z,48.8
2023-07-03T09:56:21.752Z,48.8
2023-07-03T09:58:05.461Z,48.9
2023-07-03T09:59:49.181Z,48.8
2023-07-03T10:01:32.864Z,48.7
2023-07-03T10:03:16.573Z,48.4
2023-07-03T10:05:00.281Z,48.3
2023-07-03T10:06:43.962Z,48.4
2023-07-03T10:08:27.668Z,48.3
2023-07-03T10:10:11.401Z,48.4
2023-07-03T10:11:55.071Z,48.3
2023-07-03T10:13:38.779Z,47.9
2023-07-03T10:15:22.460Z,47.7
2023-07-03T10:17:06.376Z,47.7
2023-07-03T10:18:50.119Z,47.7
2023-07-03T10:20:33.873Z,47.9
2023-07-03T10:24:00.977Z,48.1
2023-07-03T10:25:44.690Z,47.9
2023-07-03T10:27:28.373Z,47.9
2023-07-03T10:29:12.092Z,47.9
2023-07-03T10:30:55.804Z,48
2023-07-03T10:32:39.486Z,47.9
2023-07-03T10:34:23.194Z,47.9
2023-07-03T10:36:07.083Z,47.8
2023-07-03T10:37:50.807Z,47.8
2023-07-03T10:39:34.537Z,47.8
2023-07-03T10:41:18.068Z,47.7
2023-07-03T10:43:01.790Z,47.5
2023-07-03T10:44:45.461Z,47.5
2023-07-03T10:46:29.122Z,47.4
2023-07-03T10:48:12.828Z,47.3
2023-07-03T10:49:56.528Z,47.1
2023-07-03T10:51:40.393Z,46.8
2023-07-03T10:53:24.137Z,46.7
2023-07-03T10:55:07.644Z,46.9
2023-07-03T10:56:51.342Z,46.7
2023-07-03T10:58:35.035Z,46.8
2023-07-03T11:00:18.748Z,46.7
2023-07-03T11:02:02.683Z,46.5
2023-07-03T11:03:46.274Z,46.1
2023-07-03T11:05:29.984Z,45.9
2023-07-03T11:07:13.640Z,45.9
2023-07-03T11:08:57.269Z,45.7
2023-07-03T11:10:40.935Z,45.6
2023-07-03T11:12:24.674Z,45.7
2023-07-03T11:14:08.413Z,45.8
2023-07-03T11:15:52.215Z,45.9
2023-07-03T11:17:35.748Z,46
2023-07-03T11:19:19.450Z,46
2023-07-03T11:21:03.157Z,45.9
2023-07-03T11:22:46.866Z,45.8
2023-07-03T11:24:30.537Z,45.7
2023-07-03T11:26:14.265Z,45.7
2023-07-03T11:27:57.966Z,46
2023-07-03T11:29:41.827Z,45.9
2023-07-03T11:31:25.551Z,46
2023-07-03T11:33:09.051Z,46.1
2023-07-03T11:34:52.766Z,46.1
2023-07-03T11:36:36.482Z,46
2023-07-03T11:38:20.177Z,45.9
2023-07-03T11:40:03.891Z,45.8
2023-07-03T11:41:47.581Z,46
2023-07-03T11:45:14.977Z,46.2
2023-07-03T11:46:58.688Z,46.1
2023-07-03T11:48:42.394Z,45.6
2023-07-03T11:50:26.099Z,45.9
2023-07-03T11:52:09.782Z,45.8
2023-07-03T11:53:53.478Z,45.8
2023-07-03T11:55:37.203Z,45.6
2023-07-03T11:57:20.913Z,45.7
2023-07-03T11:59:04.599Z,45.6
2023-07-03T12:00:48.308Z,45.7
2023-07-03T12:02:32.053Z,45.7
2023-07-03T12:04:15.900Z,45.8
2023-07-03T12:05:59.412Z,45.9
2023-07-03T12:07:43.122Z,46
2023-07-03T12:09:26.816Z,46
2023-07-03T12:11:10.544Z,45.9
2023-07-03T12:12:54.233Z,45.9
2023-07-03T12:14:37.937Z,45.7
2023-07-03T12:16:21.644Z,45.8
2023-07-03T12:18:05.669Z,46
2023-07-03T12:19:49.052Z,46.2
2023-07-03T12:21:32.735Z,46.5
2023-07-03T12:23:16.447Z,46.5
2023-07-03T12:25:00.142Z,46.5
2023-07-03T12:26:43.857Z,46.6
2023-07-03T12:28:27.561Z,46.6
2023-07-03T12:30:11.251Z,46.6
2023-07-03T12:31:54.961Z,46.4
2023-07-03T12:33:38.655Z,46.5
2023-07-03T12:35:22.370Z,46.7
2023-07-03T12:37:06.074Z,46.7
2023-07-03T12:38:49.779Z,46.7
2023-07-03T12:40:33.471Z,46.6
2023-07-03T12:42:17.171Z,46.7
2023-07-03T12:44:00.887Z,46.8
2023-07-03T12:45:44.575Z,47
2023-07-03T12:47:28.301Z,47.2
2023-07-03T12:49:11.992Z,47.4
2023-07-03T12:50:55.704Z,47.6
2023-07-03T12:52:39.426Z,47.8
2023-07-03T12:54:23.253Z,48
2023-07-03T12:56:06.809Z,48
2023-07-03T12:57:50.507Z,47.5
2023-07-03T12:59:34.229Z,47.4
2023-07-03T13:01:17.925Z,47.4
2023-07-03T13:03:01.601Z,47.3
2023-07-03T13:04:45.307Z,47.3
2023-07-03T13:06:29.019Z,47.4
2023-07-03T13:08:12.755Z,47.3
2023-07-03T13:09:56.420Z,47.3
2023-07-03T13:11:40.123Z,47.3
2023-07-03T13:13:23.830Z,47.4
2023-07-03T13:15:07.523Z,47.3
2023-07-03T13:16:51.204Z,47.4
2023-07-03T13:18:34.936Z,47.5
2023-07-03T13:20:18.630Z,47.4
2023-07-03T13:22:02.343Z,47.4
2023-07-03T13:23:46.025Z,47.4
2023-07-03T13:25:29.854Z,47.2
2023-07-03T13:27:13.505Z,47.1
2023-07-03T13:28:57.362Z,47.1
2023-07-03T13:30:40.838Z,47.1
2023-07-03T13:32:24.549Z,47
2023-07-03T13:34:08.239Z,47.1
2023-07-03T13:35:51.935Z,47.1
2023-07-03T13:37:35.646Z,46.9
2023-07-03T13:39:19.343Z,46.9
2023-07-03T13:41:03.088Z,46.8
2023-07-03T13:42:46.760Z,46.9
2023-07-03T13:44:30.581Z,46.7
2023-07-03T13:46:14.150Z,46.8
2023-07-03T13:47:57.859Z,46.9
2023-07-03T13:49:41.575Z,47
2023-07-03T13:51:25.268Z,46.7
2023-07-03T13:53:08.956Z,46.6
2023-07-03T13:54:52.681Z,46.8
2023-07-03T13:56:36.370Z,46.9
2023-07-03T13:58:20.085Z,46.9
2023-07-03T14:00:03.805Z,46.7
2023-07-03T14:01:47.460Z,46.5
2023-07-03T14:03:31.182Z,46.5
2023-07-03T14:05:14.892Z,46.3
2023-07-03T14:06:58.575Z,46.4
2023-07-03T14:08:42.287Z,46.6
2023-07-03T14:10:26.011Z,46.6
2023-07-03T14:12:09.696Z,46.2
2023-07-03T14:13:53.404Z,46.1
2023-07-03T14:15:37.098Z,46.2
2023-07-03T14:17:20.793Z,46.4
2023-07-03T14:19:04.500Z,46.5
2023-07-03T14:20:48.216Z,46.5
2023-07-03T14:22:31.896Z,46.6
2023-07-03T14:24:15.609Z,46.6
2023-07-03T14:25:59.297Z,46.6
2023-07-03T14:27:43.029Z,46.7
2023-07-03T14:29:26.709Z,46.8
2023-07-03T14:31:10.457Z,46.9
2023-07-03T14:32:54.131Z,46.8
2023-07-03T14:34:37.882Z,46.6
2023-07-03T14:36:21.514Z,46.6
2023-07-03T14:38:05.203Z,46.5
2023-07-03T14:39:48.914Z,46.5
2023-07-03T14:41:32.631Z,46.7
2023-07-03T14:43:16.290Z,46.7
2023-07-03T14:45:00.010Z,46.6
2023-07-03T14:46:43.732Z,46.6
2023-07-03T14:48:27.428Z,46.7
2023-07-03T14:50:11.115Z,46.8
2023-07-03T14:51:54.822Z,46.6
2023-07-03T14:53:38.533Z,46.5
2023-07-03T14:55:22.224Z,46.5
2023-07-03T14:57:05.936Z,46.4
2023-07-03T14:58:49.627Z,46.3
2023-07-03T15:00:33.338Z,46.5
2023-07-03T15:02:17.050Z,46.7
2023-07-03T15:04:00.737Z,46.7
2023-07-03T15:05:44.451Z,46.8
2023-07-03T15:07:28.160Z,46.8
2023-07-03T15:09:11.869Z,46.8
2023-07-03T15:10:55.569Z,46.8
2023-07-03T15:12:39.267Z,46.8
2023-07-03T15:14:22.976Z,46.9
2023-07-03T15:16:06.680Z,46.7
2023-07-03T15:17:50.401Z,46.7
2023-07-03T15:19:34.073Z,46.8
2023-07-03T15:21:17.792Z,46.8
2023-07-03T15:23:01.503Z,46.8
2023-07-03T15:24:45.190Z,46.9
2023-07-03T15:26:28.890Z,47
2023-07-03T15:28:12.598Z,47
2023-07-03T15:29:56.301Z,47.1
2023-07-03T15:31:39.993Z,47.1
2023-07-03T15:33:23.680Z,46.7
2023-07-03T15:35:07.413Z,46.6
2023-07-03T15:36:51.105Z,46.7
2023-07-03T15:38:34.801Z,46.5
2023-07-03T15:40:18.503Z,46.2
2023-07-03T15:42:02.222Z,46.2
2023-07-03T15:43:45.917Z,46.2
2023-07-03T15:45:29.612Z,46.4
2023-07-03T15:47:13.297Z,46.4
2023-07-03T15:48:56.996Z,46.2
2023-07-03T15:50:40.720Z,46
2023-07-03T15:52:24.402Z,46
2023-07-03T15:54:08.112Z,45.9
2023-07-03T15:55:51.811Z,45.9
2023-07-03T15:57:35.510Z,46.1
2023-07-03T15:59:19.221Z,46.3
2023-07-03T16:01:02.920Z,46.5
2023-07-03T16:02:46.629Z,46.9
2023-07-03T16:04:30.366Z,47
2023-07-03T16:06:14.016Z,47
2023-07-03T16:07:57.727Z,47.2
2023-07-03T16:09:41.438Z,47.2
2023-07-03T16:11:25.142Z,47.1
2023-07-03T16:13:08.866Z,47
2023-07-03T16:14:52.545Z,47
2023-07-03T16:16:36.240Z,47
2023-07-03T16:18:19.956Z,46.7
2023-07-03T16:20:03.657Z,46.8
2023-07-03T16:21:47.355Z,46.8
2023-07-03T16:23:31.046Z,46.9
2023-07-03T16:25:14.748Z,47
2023-07-03T16:26:58.467Z,47.1
2023-07-03T16:28:42.174Z,47.2
2023-07-03T16:30:25.924Z,47.2
2023-07-03T16:32:09.560Z,47.3
2023-07-03T16:33:53.259Z,47.3
2023-07-03T16:35:36.949Z,47.3
2023-07-03T16:37:20.651Z,47.2
2023-07-03T16:39:04.364Z,47.3
2023-07-03T16:40:48.063Z,47.3
2023-07-03T16:42:31.802Z,47.3
2023-07-03T16:44:15.477Z,47.5
2023-07-03T16:45:59.186Z,47.4
2023-07-03T16:47:42.881Z,47.4
2023-07-03T16:49:26.580Z,47.5
2023-07-03T16:51:10.291Z,47.6
2023-07-03T16:52:53.998Z,47.7
2023-07-03T16:54:37.689Z,47.8
2023-07-03T16:56:21.419Z,48
2023-07-03T16:58:05.114Z,48
2023-07-03T16:59:48.791Z,48.1
2023-07-03T17:01:32.485Z,48.1
2023-07-03T17:03:16.205Z,48.2
2023-07-03T17:04:59.902Z,48.3
2023-07-03T17:06:43.601Z,48.3
2023-07-03T17:08:27.298Z,48.4
2023-07-03T17:10:11.013Z,48.4
2023-07-03T17:11:54.723Z,48.3
2023-07-03T17:13:38.387Z,48.3
2023-07-03T17:15:22.118Z,48.2
2023-07-03T17:17:05.839Z,48
2023-07-03T17:18:49.503Z,48
2023-07-03T17:20:33.206Z,48.2
2023-07-03T17:22:16.917Z,48.2
2023-07-03T17:24:00.616Z,48.1
2023-07-03T17:25:44.319Z,48.1
2023-07-03T17:27:28.012Z,48.1
2023-07-03T17:29:11.736Z,48.2
2023-07-03T17:30:55.439Z,48.3
2023-07-03T17:32:39.131Z,48.3
2023-07-03T17:34:22.850Z,48.3
2023-07-03T17:36:06.537Z,48.3
2023-07-03T17:37:50.235Z,48.2
2023-07-03T17:39:33.940Z,48.3
2023-07-03T17:41:17.656Z,48.2
2023-07-03T17:43:01.356Z,48.3
2023-07-03T17:44:45.057Z,48.4
2023-07-03T17:46:28.800Z,48.4
2023-07-03T17:48:12.485Z,48.4
2023-07-03T17:49:56.151Z,48.5
2023-07-03T17:51:39.862Z,48.6
2023-07-03T17:53:23.576Z,48.9
2023-07-03T17:55:07.279Z,49
2023-07-03T17:56:50.962Z,49.1
2023-07-03T17:58:34.658Z,49.2
2023-07-03T18:00:18.380Z,49.2
2023-07-03T18:02:02.055Z,49.3
2023-07-03T18:03:45.787Z,49.3
2023-07-03T18:05:29.486Z,49.4
2023-07-03T18:07:13.185Z,49.4
2023-07-03T18:08:56.884Z,49.5
2023-07-03T18:10:40.593Z,49.6
2023-07-03T18:12:24.291Z,49.7
2023-07-03T18:14:08.000Z,49.8
2023-07-03T18:15:51.679Z,50.1
2023-07-03T18:17:35.404Z,50.1
2023-07-03T18:19:19.085Z,50.5
2023-07-03T18:21:02.809Z,50.8
2023-07-03T18:22:46.502Z,50.7
2023-07-03T18:24:30.204Z,51.1
2023-07-03T18:26:13.936Z,51.3
2023-07-03T18:27:57.610Z,51.6
2023-07-03T18:29:41.311Z,52.2
2023-07-03T18:31:25.018Z,52.6
2023-07-03T18:33:08.730Z,52.9
2023-07-03T18:34:52.421Z,53.2
2023-07-03T18:36:36.131Z,53.8
2023-07-03T18:38:19.829Z,53.8
2023-07-03T18:40:03.537Z,54
2023-07-03T18:41:47.222Z,54.1
2023-07-03T18:43:30.940Z,54.5
2023-07-03T18:45:14.626Z,54.3
2023-07-03T18:46:58.344Z,54.2
2023-07-03T18:48:42.030Z,54.4
2023-07-03T18:50:25.741Z,54.7
2023-07-03T18:52:09.452Z,54.5
2023-07-03T18:53:53.197Z,54.9
2023-07-03T18:55:36.855Z,55.2
2023-07-03T18:57:20.552Z,55.3
2023-07-03T18:59:04.270Z,55.4
2023-07-03T19:00:47.967Z,55.3
2023-07-03T19:02:31.673Z,55.4
2023-07-03T19:04:15.352Z,55.6
2023-07-03T19:05:59.051Z,55.6
2023-07-03T19:07:42.746Z,55.7
2023-07-03T19:09:26.490Z,55.7
2023-07-03T19:11:10.176Z,55.8
2023-07-03T19:12:53.960Z,56
2023-07-03T19:14:37.579Z,56.2
2023-07-03T19:16:21.383Z,56.3
2023-07-03T19:18:05.525Z,56.3
2023-07-03T19:19:48.689Z,56.4
2023-07-03T19:21:32.424Z,56.3
2023-07-03T19:23:16.089Z,56.1
2023-07-03T19:24:59.783Z,56
2023-07-03T19:26:43.537Z,56.1
2023-07-03T19:28:27.270Z,56
2023-07-03T19:30:10.925Z,56
2023-07-03T19:31:54.646Z,55.9
2023-07-03T19:33:38.327Z,56.1
2023-07-03T19:35:21.995Z,55.9
2023-07-03T19:37:05.723Z,55.7
2023-07-03T19:38:49.403Z,55.6
2023-07-03T19:40:33.264Z,55.3
2023-07-03T19:42:16.869Z,55.3
2023-07-03T19:44:00.512Z,55.4
2023-07-03T19:45:44.222Z,55.5
2023-07-03T19:47:27.913Z,55.6
2023-07-03T19:49:11.636Z,55.5
2023-07-03T19:50:55.322Z,55.4
2023-07-03T19:52:39.031Z,55.4
2023-07-03T19:54:22.738Z,55.6
2023-07-03T19:56:06.436Z,55.6
2023-07-03T19:57:50.136Z,55.6
2023-07-03T19:59:33.833Z,55.8
2023-07-03T20:01:17.533Z,56
2023-07-03T20:03:01.263Z,55.9
2023-07-03T20:04:44.961Z,55.8
2023-07-03T20:06:28.668Z,55.9
2023-07-03T20:08:12.349Z,55.9
2023-07-03T20:09:56.077Z,56.1
2023-07-03T20:11:39.771Z,56.2
2023-07-03T20:13:23.451Z,56.3
2023-07-03T20:15:07.148Z,56.5
2023-07-03T20:16:50.862Z,56.4
2023-07-03T20:18:34.617Z,56.5
2023-07-03T20:20:18.267Z,56.5
2023-07-03T20:22:02.014Z,56.6
2023-07-03T20:23:45.666Z,56.6
2023-07-03T20:25:29.377Z,56.7
2023-07-03T20:27:13.084Z,56.8
2023-07-03T20:28:56.793Z,56.7
2023-07-03T20:30:40.486Z,56.6
2023-07-03T20:32:24.176Z,56.6
2023-07-03T20:34:07.917Z,56.6
2023-07-03T20:35:51.597Z,56.4
2023-07-03T20:37:35.318Z,56.4
2023-07-03T20:39:19.022Z,56.4
2023-07-03T20:41:02.742Z,56.3
2023-07-03T20:42:46.388Z,56.3
2023-07-03T20:44:30.085Z,56.2
2023-07-03T20:46:13.846Z,56.2
2023-07-03T20:47:57.518Z,56.2
2023-07-03T20:49:41.277Z,56.2
2023-07-03T20:51:24.919Z,56.2
2023-07-03T20:53:08.608Z,56.2
2023-07-03T20:54:52.303Z,56.1
2023-07-03T20:56:36.116Z,56.1
2023-07-03T20:58:19.692Z,56.1
2023-07-03T21:00:03.414Z,56
2023-07-03T21:01:47.126Z,56
2023-07-03T21:03:30.828Z,56
2023-07-03T21:05:14.542Z,56
2023-07-03T21:06:58.228Z,55.9
2023-07-03T21:08:41.968Z,55.9
2023-07-03T21:10:25.649Z,55.9
2023-07-03T21:12:09.322Z,55.9
2023-07-03T21:13:53.030Z,55.9
2023-07-03T21:17:20.435Z,55.9
2023-07-03T21:19:04.161Z,55.9
2023-07-03T21:20:47.821Z,55.9
2023-07-03T21:22:31.543Z,55.9
2023-07-03T21:24:15.233Z,55.9
2023-07-03T21:25:58.938Z,55.9
2023-07-03T21:27:42.638Z,55.9
2023-07-03T21:29:26.359Z,56
2023-07-03T21:31:10.043Z,56
2023-07-03T21:32:53.804Z,56
2023-07-03T21:34:37.485Z,55.9
2023-07-03T21:36:21.250Z,56
2023-07-03T21:38:04.877Z,56
2023-07-03T21:39:48.582Z,56
2023-07-03T21:41:32.261Z,56
2023-07-03T21:43:15.971Z,56
2023-07-03T21:44:59.663Z,56
2023-07-03T21:46:43.364Z,56
2023-07-03T21:48:27.076Z,56
2023-07-03T21:50:10.784Z,56
2023-07-03T21:51:54.459Z,56.1
2023-07-03T21:53:38.176Z,56.1
2023-07-03T21:55:21.885Z,56.1
2023-07-03T21:57:05.575Z,56.1
2023-07-03T21:58:49.267Z,56.1
2023-07-03T22:00:32.981Z,56.1
2023-07-03T22:02:16.681Z,56.1
2023-07-03T22:04:00.400Z,56.1
2023-07-03T22:05:44.087Z,56.2
2023-07-03T22:07:27.831Z,56.1
2023-07-03T22:09:11.492Z,56.2
2023-07-03T22:10:55.203Z,56.1
2023-07-03T22:12:38.974Z,56.2
2023-07-03T22:14:22.596Z,56.2
2023-07-03T22:16:06.295Z,56.2
2023-07-03T22:17:49.989Z,56.2
2023-07-03T22:19:33.695Z,56.2
2023-07-03T22:21:17.407Z,56.2
2023-07-03T22:23:01.096Z,56.2
2023-07-03T22:24:44.817Z,56.2
2023-07-03T22:26:28.518Z,56.2
2023-07-03T22:28:12.213Z,56.3
2023-07-03T22:29:55.926Z,56.2
2023-07-03T22:31:39.600Z,56.2
2023-07-03T22:33:23.306Z,56.2
2023-07-03T22:35:07.007Z,56.2
2023-07-03T22:36:50.721Z,56.3
2023-07-03T22:38:34.534Z,56.3
2023-07-03T22:40:18.106Z,56.3
2023-07-03T22:42:01.852Z,56.3
2023-07-03T22:43:45.529Z,56.3
2023-07-03T22:45:29.235Z,56.3
2023-07-03T22:47:12.951Z,56.3
2023-07-03T22:48:56.632Z,56.3
2023-07-03T22:50:40.343Z,56.3
2023-07-03T22:52:24.053Z,56.3
2023-07-03T22:54:07.718Z,56.3
2023-07-03T22:55:51.428Z,56.3
2023-07-03T22:57:35.133Z,56.3
2023-07-03T22:59:18.850Z,56.3
2023-07-03T23:01:02.550Z,56.3
2023-07-03T23:02:46.239Z,56.3
2023-07-03T23:04:30.036Z,56.3
2023-07-03T23:06:13.668Z,56.3
2023-07-03T23:07:57.444Z,56.3
2023-07-03T23:09:41.052Z,56.4
2023-07-03T23:11:24.754Z,56.3
2023-07-03T23:13:08.466Z,56.3
2023-07-03T23:14:52.183Z,56.3